sensor_id;sensor_type;location;lat;lon;timestamp;P1;durP1;ratioP1;P2;durP2;ratioP2
29732;SDS011;16643;43.158;25.302;2023-04-03T00:00:48;3.20;;;1.02;;
29732;SDS011;16643;43.158;25.302;2023-04-03T00:03:15;1.85;;;0.90;;
29732;SDS011;16643;43.158;25.302;2023-04-03T00:05:41;2.33;;;1.10;;
29732;SDS011;16643;43.158;25.302;2023-04-03T00:08:07;3.65;;;1.15;;
29732;SDS011;16643;43.158;25.302;2023-04-03T00:10:35;0.82;;;0.80;;
29732;SDS011;16643;43.158;25.302;2023-04-03T00:13:02;1.73;;;1.08;;
29732;SDS011;16643;43.158;25.302;2023-04-03T00:15:28;2.72;;;1.40;;
29732;SDS011;16643;43.158;25.302;2023-04-03T00:17:54;2.58;;;1.17;;
29732;SDS011;16643;43.158;25.302;2023-04-03T00:20:20;2.20;;;1.20;;
29732;SDS011;16643;43.158;25.302;2023-04-03T00:22:46;1.98;;;1.15;;
29732;SDS011;16643;43.158;25.302;2023-04-03T00:25:11;2.90;;;1.60;;
29732;SDS011;16643;43.158;25.302;2023-04-03T00:27:38;2.08;;;1.30;;
29732;SDS011;16643;43.158;25.302;2023-04-03T00:30:04;1.95;;;1.23;;
29732;SDS011;16643;43.158;25.302;2023-04-03T00:32:32;2.38;;;1.40;;
29732;SDS011;16643;43.158;25.302;2023-04-03T00:34:58;1.92;;;1.00;;
29732;SDS011;16643;43.158;25.302;2023-04-03T00:37:24;1.65;;;1.55;;
29732;SDS011;16643;43.158;25.302;2023-04-03T00:39:49;2.10;;;1.00;;
29732;SDS011;16643;43.158;25.302;2023-04-03T00:42:15;2.25;;;1.20;;
29732;SDS011;16643;43.158;25.302;2023-04-03T00:47:08;2.78;;;1.38;;
29732;SDS011;16643;43.158;25.302;2023-04-03T00:49:37;2.67;;;1.30;;
29732;SDS011;16643;43.158;25.302;2023-04-03T00:54:33;1.52;;;1.00;;
29732;SDS011;16643;43.158;25.302;2023-04-03T00:57:01;3.10;;;1.08;;
29732;SDS011;16643;43.158;25.302;2023-04-03T00:59:30;2.92;;;1.15;;
29732;SDS011;16643;43.158;25.302;2023-04-03T01:01:59;1.55;;;1.20;;
29732;SDS011;16643;43.158;25.302;2023-04-03T01:07:06;1.85;;;1.08;;
29732;SDS011;16643;43.158;25.302;2023-04-03T01:09:35;3.42;;;1.38;;
29732;SDS011;16643;43.158;25.302;2023-04-03T01:14:48;2.25;;;1.33;;
29732;SDS011;16643;43.158;25.302;2023-04-03T01:23:05;1.88;;;1.08;;
29732;SDS011;16643;43.158;25.302;2023-04-03T01:25:39;1.85;;;1.30;;
29732;SDS011;16643;43.158;25.302;2023-04-03T01:28:14;1.42;;;1.00;;
29732;SDS011;16643;43.158;25.302;2023-04-03T01:30:55;1.85;;;1.30;;
29732;SDS011;16643;43.158;25.302;2023-04-03T01:33:40;2.22;;;1.08;;
29732;SDS011;16643;43.158;25.302;2023-04-03T01:36:07;2.53;;;1.10;;
29732;SDS011;16643;43.158;25.302;2023-04-03T01:38:33;2.33;;;1.10;;
29732;SDS011;16643;43.158;25.302;2023-04-03T01:40:59;1.88;;;1.10;;
29732;SDS011;16643;43.158;25.302;2023-04-03T01:43:25;2.20;;;1.10;;
29732;SDS011;16643;43.158;25.302;2023-04-03T01:45:50;1.58;;;1.15;;
29732;SDS011;16643;43.158;25.302;2023-04-03T01:48:17;2.60;;;1.38;;
29732;SDS011;16643;43.158;25.302;2023-04-03T01:50:43;1.67;;;1.42;;
29732;SDS011;16643;43.158;25.302;2023-04-03T01:53:09;1.75;;;1.05;;
29732;SDS011;16643;43.158;25.302;2023-04-03T01:55:34;1.90;;;0.95;;
29732;SDS011;16643;43.158;25.302;2023-04-03T01:58:00;2.10;;;1.10;;
29732;SDS011;16643;43.158;25.302;2023-04-03T02:00:26;2.28;;;1.30;;
29732;SDS011;16643;43.158;25.302;2023-04-03T02:02:52;3.97;;;1.25;;
29732;SDS011;16643;43.158;25.302;2023-04-03T02:05:17;1.27;;;0.93;;
29732;SDS011;16643;43.158;25.302;2023-04-03T02:07:43;2.00;;;1.05;;
29732;SDS011;16643;43.158;25.302;2023-04-03T02:10:09;1.15;;;1.00;;
29732;SDS011;16643;43.158;25.302;2023-04-03T02:12:35;1.80;;;1.10;;
29732;SDS011;16643;43.158;25.302;2023-04-03T02:15:01;1.77;;;1.30;;
29732;SDS011;16643;43.158;25.302;2023-04-03T02:17:26;1.02;;;0.88;;
29732;SDS011;16643;43.158;25.302;2023-04-03T02:19:52;1.73;;;0.80;;
29732;SDS011;16643;43.158;25.302;2023-04-03T02:22:17;1.85;;;1.10;;
29732;SDS011;16643;43.158;25.302;2023-04-03T02:24:44;1.65;;;0.90;;
29732;SDS011;16643;43.158;25.302;2023-04-03T02:27:09;2.03;;;1.10;;
29732;SDS011;16643;43.158;25.302;2023-04-03T02:29:35;1.38;;;0.90;;
29732;SDS011;16643;43.158;25.302;2023-04-03T02:32:00;1.33;;;0.95;;
29732;SDS011;16643;43.158;25.302;2023-04-03T02:34:26;1.80;;;1.10;;
29732;SDS011;16643;43.158;25.302;2023-04-03T02:36:52;1.67;;;0.95;;
29732;SDS011;16643;43.158;25.302;2023-04-03T02:39:17;1.45;;;1.00;;
29732;SDS011;16643;43.158;25.302;2023-04-03T02:41:43;2.67;;;1.30;;
29732;SDS011;16643;43.158;25.302;2023-04-03T02:44:09;3.25;;;1.13;;
29732;SDS011;16643;43.158;25.302;2023-04-03T02:46:36;1.08;;;0.85;;
29732;SDS011;16643;43.158;25.302;2023-04-03T02:49:02;1.42;;;1.30;;
29732;SDS011;16643;43.158;25.302;2023-04-03T02:51:28;1.90;;;1.20;;
29732;SDS011;16643;43.158;25.302;2023-04-03T02:53:53;1.92;;;1.00;;
29732;SDS011;16643;43.158;25.302;2023-04-03T02:56:19;1.42;;;0.90;;
29732;SDS011;16643;43.158;25.302;2023-04-03T02:58:45;1.83;;;1.10;;
29732;SDS011;16643;43.158;25.302;2023-04-03T03:01:11;1.45;;;0.95;;
29732;SDS011;16643;43.158;25.302;2023-04-03T03:03:37;1.63;;;1.23;;
29732;SDS011;16643;43.158;25.302;2023-04-03T03:06:04;1.50;;;1.10;;
29732;SDS011;16643;43.158;25.302;2023-04-03T03:08:36;1.30;;;1.20;;
29732;SDS011;16643;43.158;25.302;2023-04-03T03:11:01;1.40;;;1.20;;
29732;SDS011;16643;43.158;25.302;2023-04-03T03:13:28;1.50;;;1.00;;
29732;SDS011;16643;43.158;25.302;2023-04-03T03:15:54;1.65;;;1.05;;
29732;SDS011;16643;43.158;25.302;2023-04-03T03:18:19;1.77;;;1.10;;
29732;SDS011;16643;43.158;25.302;2023-04-03T03:20:45;2.60;;;1.23;;
29732;SDS011;16643;43.158;25.302;2023-04-03T03:23:11;2.40;;;1.15;;
29732;SDS011;16643;43.158;25.302;2023-04-03T03:25:40;1.63;;;1.20;;
29732;SDS011;16643;43.158;25.302;2023-04-03T03:28:06;2.20;;;0.93;;
29732;SDS011;16643;43.158;25.302;2023-04-03T03:30:32;1.65;;;1.20;;
29732;SDS011;16643;43.158;25.302;2023-04-03T03:32:58;2.33;;;1.20;;
29732;SDS011;16643;43.158;25.302;2023-04-03T03:35:24;2.47;;;1.30;;
29732;SDS011;16643;43.158;25.302;2023-04-03T03:37:49;1.33;;;1.13;;
29732;SDS011;16643;43.158;25.302;2023-04-03T03:40:15;2.00;;;1.23;;
29732;SDS011;16643;43.158;25.302;2023-04-03T03:42:40;3.38;;;1.30;;
29732;SDS011;16643;43.158;25.302;2023-04-03T03:45:06;1.88;;;0.98;;
29732;SDS011;16643;43.158;25.302;2023-04-03T03:47:33;2.10;;;1.13;;
29732;SDS011;16643;43.158;25.302;2023-04-03T03:49:58;2.00;;;1.38;;
29732;SDS011;16643;43.158;25.302;2023-04-03T03:52:24;2.38;;;0.98;;
29732;SDS011;16643;43.158;25.302;2023-04-03T03:54:50;1.48;;;0.93;;
29732;SDS011;16643;43.158;25.302;2023-04-03T03:57:16;1.83;;;1.00;;
29732;SDS011;16643;43.158;25.302;2023-04-03T03:59:41;1.52;;;1.00;;
29732;SDS011;16643;43.158;25.302;2023-04-03T04:02:09;2.50;;;1.20;;
29732;SDS011;16643;43.158;25.302;2023-04-03T04:04:36;1.80;;;1.00;;
29732;SDS011;16643;43.158;25.302;2023-04-03T04:07:02;1.85;;;1.00;;
29732;SDS011;16643;43.158;25.302;2023-04-03T04:09:28;2.33;;;1.10;;
29732;SDS011;16643;43.158;25.302;2023-04-03T04:11:54;2.00;;;1.10;;
29732;SDS011;16643;43.158;25.302;2023-04-03T04:14:20;1.92;;;1.15;;
29732;SDS011;16643;43.158;25.302;2023-04-03T04:16:46;2.33;;;1.35;;
29732;SDS011;16643;43.158;25.302;2023-04-03T04:19:12;5.30;;;1.60;;
29732;SDS011;16643;43.158;25.302;2023-04-03T04:21:38;3.88;;;2.00;;
29732;SDS011;16643;43.158;25.302;2023-04-03T04:24:05;3.42;;;2.28;;
29732;SDS011;16643;43.158;25.302;2023-04-03T04:26:31;3.83;;;1.48;;
29732;SDS011;16643;43.158;25.302;2023-04-03T04:28:56;3.83;;;1.73;;
29732;SDS011;16643;43.158;25.302;2023-04-03T04:31:25;3.50;;;2.15;;
29732;SDS011;16643;43.158;25.302;2023-04-03T04:33:51;2.65;;;1.80;;
29732;SDS011;16643;43.158;25.302;2023-04-03T04:36:18;3.20;;;2.22;;
29732;SDS011;16643;43.158;25.302;2023-04-03T04:38:43;5.28;;;2.67;;
29732;SDS011;16643;43.158;25.302;2023-04-03T04:41:10;6.18;;;3.92;;
29732;SDS011;16643;43.158;25.302;2023-04-03T04:43:35;7.43;;;5.22;;
29732;SDS011;16643;43.158;25.302;2023-04-03T04:46:05;6.15;;;4.38;;
29732;SDS011;16643;43.158;25.302;2023-04-03T04:48:36;5.25;;;4.07;;
29732;SDS011;16643;43.158;25.302;2023-04-03T04:51:03;4.82;;;3.58;;
29732;SDS011;16643;43.158;25.302;2023-04-03T04:53:29;3.72;;;2.25;;
29732;SDS011;16643;43.158;25.302;2023-04-03T04:55:55;5.30;;;2.78;;
29732;SDS011;16643;43.158;25.302;2023-04-03T04:58:21;6.45;;;3.10;;
29732;SDS011;16643;43.158;25.302;2023-04-03T05:00:46;7.05;;;2.60;;
29732;SDS011;16643;43.158;25.302;2023-04-03T05:03:12;4.65;;;2.45;;
29732;SDS011;16643;43.158;25.302;2023-04-03T05:05:38;7.93;;;3.70;;
29732;SDS011;16643;43.158;25.302;2023-04-03T05:08:04;7.65;;;3.75;;
29732;SDS011;16643;43.158;25.302;2023-04-03T05:10:31;4.57;;;3.17;;
29732;SDS011;16643;43.158;25.302;2023-04-03T05:12:57;3.55;;;1.73;;
29732;SDS011;16643;43.158;25.302;2023-04-03T05:15:23;2.63;;;1.63;;
29732;SDS011;16643;43.158;25.302;2023-04-03T05:17:48;6.53;;;1.65;;
29732;SDS011;16643;43.158;25.302;2023-04-03T05:20:15;4.15;;;1.92;;
29732;SDS011;16643;43.158;25.302;2023-04-03T05:22:41;3.22;;;1.80;;
29732;SDS011;16643;43.158;25.302;2023-04-03T05:25:06;3.05;;;1.75;;
29732;SDS011;16643;43.158;25.302;2023-04-03T05:27:32;3.00;;;2.33;;
29732;SDS011;16643;43.158;25.302;2023-04-03T05:29:58;7.53;;;2.10;;
29732;SDS011;16643;43.158;25.302;2023-04-03T05:32:25;3.22;;;1.60;;
29732;SDS011;16643;43.158;25.302;2023-04-03T05:34:54;4.95;;;2.17;;
29732;SDS011;16643;43.158;25.302;2023-04-03T05:37:19;4.68;;;2.00;;
29732;SDS011;16643;43.158;25.302;2023-04-03T05:39:45;3.30;;;1.40;;
29732;SDS011;16643;43.158;25.302;2023-04-03T05:42:11;2.72;;;1.45;;
29732;SDS011;16643;43.158;25.302;2023-04-03T05:44:37;2.15;;;1.23;;
29732;SDS011;16643;43.158;25.302;2023-04-03T05:47:03;2.67;;;1.13;;
29732;SDS011;16643;43.158;25.302;2023-04-03T05:49:29;2.30;;;1.10;;
29732;SDS011;16643;43.158;25.302;2023-04-03T05:51:56;4.90;;;1.48;;
29732;SDS011;16643;43.158;25.302;2023-04-03T05:54:25;1.17;;;0.90;;
29732;SDS011;16643;43.158;25.302;2023-04-03T05:56:55;4.95;;;1.70;;
29732;SDS011;16643;43.158;25.302;2023-04-03T05:59:20;3.08;;;1.20;;
29732;SDS011;16643;43.158;25.302;2023-04-03T06:01:47;4.35;;;1.58;;
29732;SDS011;16643;43.158;25.302;2023-04-03T06:04:13;4.78;;;1.33;;
29732;SDS011;16643;43.158;25.302;2023-04-03T06:06:43;5.80;;;1.88;;
29732;SDS011;16643;43.158;25.302;2023-04-03T06:09:14;2.17;;;1.10;;
29732;SDS011;16643;43.158;25.302;2023-04-03T06:11:41;2.78;;;1.25;;
29732;SDS011;16643;43.158;25.302;2023-04-03T06:14:07;4.10;;;2.05;;
29732;SDS011;16643;43.158;25.302;2023-04-03T06:16:34;1.27;;;0.85;;
29732;SDS011;16643;43.158;25.302;2023-04-03T06:18:59;2.22;;;1.00;;
29732;SDS011;16643;43.158;25.302;2023-04-03T06:21:25;3.90;;;1.40;;
29732;SDS011;16643;43.158;25.302;2023-04-03T06:23:51;6.60;;;2.30;;
29732;SDS011;16643;43.158;25.302;2023-04-03T06:26:17;2.40;;;1.20;;
29732;SDS011;16643;43.158;25.302;2023-04-03T06:28:42;6.95;;;1.67;;
29732;SDS011;16643;43.158;25.302;2023-04-03T06:31:08;13.38;;;4.93;;
29732;SDS011;16643;43.158;25.302;2023-04-03T06:33:34;34.05;;;12.10;;
29732;SDS011;16643;43.158;25.302;2023-04-03T06:36:00;226.23;;;74.30;;
29732;SDS011;16643;43.158;25.302;2023-04-03T06:38:29;185.05;;;58.85;;
29732;SDS011;16643;43.158;25.302;2023-04-03T06:40:55;181.15;;;59.28;;
29732;SDS011;16643;43.158;25.302;2023-04-03T06:43:21;241.75;;;80.13;;
29732;SDS011;16643;43.158;25.302;2023-04-03T06:45:46;18.55;;;7.50;;
29732;SDS011;16643;43.158;25.302;2023-04-03T06:48:12;119.63;;;34.38;;
29732;SDS011;16643;43.158;25.302;2023-04-03T06:50:38;25.17;;;9.20;;
29732;SDS011;16643;43.158;25.302;2023-04-03T06:53:04;3.25;;;1.85;;
29732;SDS011;16643;43.158;25.302;2023-04-03T06:55:30;5.28;;;2.45;;
29732;SDS011;16643;43.158;25.302;2023-04-03T06:57:56;4.15;;;2.10;;
29732;SDS011;16643;43.158;25.302;2023-04-03T07:00:22;2.92;;;1.50;;
29732;SDS011;16643;43.158;25.302;2023-04-03T07:02:48;6.97;;;2.65;;
29732;SDS011;16643;43.158;25.302;2023-04-03T07:05:13;1.35;;;0.93;;
29732;SDS011;16643;43.158;25.302;2023-04-03T07:07:39;7.90;;;2.78;;
29732;SDS011;16643;43.158;25.302;2023-04-03T07:10:06;10.88;;;4.72;;
29732;SDS011;16643;43.158;25.302;2023-04-03T07:12:33;3.22;;;1.80;;
29732;SDS011;16643;43.158;25.302;2023-04-03T07:14:59;4.78;;;1.52;;
29732;SDS011;16643;43.158;25.302;2023-04-03T07:17:24;1.58;;;1.10;;
29732;SDS011;16643;43.158;25.302;2023-04-03T07:19:50;2.63;;;1.30;;
29732;SDS011;16643;43.158;25.302;2023-04-03T07:22:16;2.58;;;1.38;;
29732;SDS011;16643;43.158;25.302;2023-04-03T07:24:42;3.90;;;1.10;;
29732;SDS011;16643;43.158;25.302;2023-04-03T07:27:09;2.30;;;1.30;;
29732;SDS011;16643;43.158;25.302;2023-04-03T07:29:37;2.35;;;1.45;;
29732;SDS011;16643;43.158;25.302;2023-04-03T07:32:04;2.58;;;1.38;;
29732;SDS011;16643;43.158;25.302;2023-04-03T07:34:30;1.90;;;1.35;;
29732;SDS011;16643;43.158;25.302;2023-04-03T07:36:57;3.28;;;1.17;;
29732;SDS011;16643;43.158;25.302;2023-04-03T07:39:23;2.63;;;1.13;;
29732;SDS011;16643;43.158;25.302;2023-04-03T07:41:49;1.17;;;0.88;;
29732;SDS011;16643;43.158;25.302;2023-04-03T07:44:16;2.40;;;1.27;;
29732;SDS011;16643;43.158;25.302;2023-04-03T07:46:42;2.27;;;1.30;;
29732;SDS011;16643;43.158;25.302;2023-04-03T07:49:08;1.63;;;1.20;;
29732;SDS011;16643;43.158;25.302;2023-04-03T07:51:34;1.77;;;1.00;;
29732;SDS011;16643;43.158;25.302;2023-04-03T07:54:00;1.50;;;1.20;;
29732;SDS011;16643;43.158;25.302;2023-04-03T07:56:25;2.72;;;1.40;;
29732;SDS011;16643;43.158;25.302;2023-04-03T07:58:51;1.67;;;1.23;;
29732;SDS011;16643;43.158;25.302;2023-04-03T08:01:17;1.60;;;1.20;;
29732;SDS011;16643;43.158;25.302;2023-04-03T08:03:43;2.70;;;1.35;;
29732;SDS011;16643;43.158;25.302;2023-04-03T08:06:09;2.35;;;1.60;;
29732;SDS011;16643;43.158;25.302;2023-04-03T08:08:35;2.72;;;1.17;;
29732;SDS011;16643;43.158;25.302;2023-04-03T08:11:01;1.67;;;1.10;;
29732;SDS011;16643;43.158;25.302;2023-04-03T08:13:30;2.83;;;1.42;;
29732;SDS011;16643;43.158;25.302;2023-04-03T08:15:56;2.88;;;1.25;;
29732;SDS011;16643;43.158;25.302;2023-04-03T08:18:23;2.30;;;1.25;;
29732;SDS011;16643;43.158;25.302;2023-04-03T08:20:50;1.30;;;1.00;;
29732;SDS011;16643;43.158;25.302;2023-04-03T08:23:16;2.90;;;0.90;;
29732;SDS011;16643;43.158;25.302;2023-04-03T08:25:43;1.90;;;1.00;;
29732;SDS011;16643;43.158;25.302;2023-04-03T08:28:09;2.42;;;1.50;;
29732;SDS011;16643;43.158;25.302;2023-04-03T08:30:38;2.10;;;1.50;;
29732;SDS011;16643;43.158;25.302;2023-04-03T08:33:06;2.45;;;1.10;;
29732;SDS011;16643;43.158;25.302;2023-04-03T08:35:32;1.75;;;1.20;;
29732;SDS011;16643;43.158;25.302;2023-04-03T08:37:58;1.95;;;1.13;;
29732;SDS011;16643;43.158;25.302;2023-04-03T08:40:23;2.90;;;1.50;;
29732;SDS011;16643;43.158;25.302;2023-04-03T08:48:17;1.75;;;1.13;;
29732;SDS011;16643;43.158;25.302;2023-04-03T08:50:47;2.90;;;1.60;;
29732;SDS011;16643;43.158;25.302;2023-04-03T08:53:18;2.70;;;1.58;;
29732;SDS011;16643;43.158;25.302;2023-04-03T08:55:47;4.55;;;2.35;;
29732;SDS011;16643;43.158;25.302;2023-04-03T09:03:20;1.33;;;1.00;;
29732;SDS011;16643;43.158;25.302;2023-04-03T09:05:54;2.65;;;1.42;;
29732;SDS011;16643;43.158;25.302;2023-04-03T09:08:22;4.22;;;2.30;;
29732;SDS011;16643;43.158;25.302;2023-04-03T09:10:49;1.95;;;1.10;;
29732;SDS011;16643;43.158;25.302;2023-04-03T09:16:25;1.65;;;1.33;;
29732;SDS011;16643;43.158;25.302;2023-04-03T09:21:38;2.85;;;1.20;;
29732;SDS011;16643;43.158;25.302;2023-04-03T09:24:07;1.92;;;1.20;;
29732;SDS011;16643;43.158;25.302;2023-04-03T09:29:25;1.70;;;1.20;;
29732;SDS011;16643;43.158;25.302;2023-04-03T09:32:01;1.92;;;1.23;;
29732;SDS011;16643;43.158;25.302;2023-04-03T09:34:37;1.50;;;1.15;;
29732;SDS011;16643;43.158;25.302;2023-04-03T09:37:06;6.53;;;4.50;;
29732;SDS011;16643;43.158;25.302;2023-04-03T09:39:49;2.60;;;1.73;;
29732;SDS011;16643;43.158;25.302;2023-04-03T09:42:22;2.08;;;1.10;;
29732;SDS011;16643;43.158;25.302;2023-04-03T09:44:59;1.38;;;1.15;;
29732;SDS011;16643;43.158;25.302;2023-04-03T09:47:31;2.75;;;1.58;;
29732;SDS011;16643;43.158;25.302;2023-04-03T09:52:40;2.03;;;1.30;;
29732;SDS011;16643;43.158;25.302;2023-04-03T09:55:21;2.97;;;1.17;;
29732;SDS011;16643;43.158;25.302;2023-04-03T09:57:57;1.85;;;1.20;;
29732;SDS011;16643;43.158;25.302;2023-04-03T10:00:34;1.77;;;1.52;;
29732;SDS011;16643;43.158;25.302;2023-04-03T10:03:01;1.38;;;1.08;;
29732;SDS011;16643;43.158;25.302;2023-04-03T10:10:42;1.20;;;1.10;;
29732;SDS011;16643;43.158;25.302;2023-04-03T10:13:16;1.20;;;0.90;;
29732;SDS011;16643;43.158;25.302;2023-04-03T10:20:52;1.83;;;1.08;;
29732;SDS011;16643;43.158;25.302;2023-04-03T10:23:26;1.67;;;1.05;;
29732;SDS011;16643;43.158;25.302;2023-04-03T10:26:08;1.85;;;1.27;;
29732;SDS011;16643;43.158;25.302;2023-04-03T10:36:37;1.30;;;1.00;;
29732;SDS011;16643;43.158;25.302;2023-04-03T10:47:20;1.60;;;1.10;;
29732;SDS011;16643;43.158;25.302;2023-04-03T10:50:48;3.10;;;1.10;;
29732;SDS011;16643;43.158;25.302;2023-04-03T10:52:57;2.15;;;1.42;;
29732;SDS011;16643;43.158;25.302;2023-04-03T10:58:36;1.98;;;1.00;;
29732;SDS011;16643;43.158;25.302;2023-04-03T11:01:12;1.75;;;1.20;;
29732;SDS011;16643;43.158;25.302;2023-04-03T11:03:41;2.15;;;1.27;;
29732;SDS011;16643;43.158;25.302;2023-04-03T11:06:12;1.00;;;0.90;;
29732;SDS011;16643;43.158;25.302;2023-04-03T11:11:36;2.03;;;1.40;;
29732;SDS011;16643;43.158;25.302;2023-04-03T11:14:05;2.67;;;1.25;;
29732;SDS011;16643;43.158;25.302;2023-04-03T11:16:46;1.67;;;1.10;;
29732;SDS011;16643;43.158;25.302;2023-04-03T11:22:22;1.80;;;1.15;;
29732;SDS011;16643;43.158;25.302;2023-04-03T11:25:14;1.55;;;1.02;;
29732;SDS011;16643;43.158;25.302;2023-04-03T11:30:18;1.85;;;1.20;;
29732;SDS011;16643;43.158;25.302;2023-04-03T11:35:29;1.67;;;1.23;;
29732;SDS011;16643;43.158;25.302;2023-04-03T11:37:56;2.10;;;1.33;;
29732;SDS011;16643;43.158;25.302;2023-04-03T11:40:26;2.65;;;1.20;;
29732;SDS011;16643;43.158;25.302;2023-04-03T11:47:51;1.13;;;0.90;;
29732;SDS011;16643;43.158;25.302;2023-04-03T12:03:30;1.08;;;0.90;;
29732;SDS011;16643;43.158;25.302;2023-04-03T12:08:43;1.48;;;0.98;;
29732;SDS011;16643;43.158;25.302;2023-04-03T12:16:04;1.50;;;1.00;;
29732;SDS011;16643;43.158;25.302;2023-04-03T12:19:24;5.57;;;1.00;;
29732;SDS011;16643;43.158;25.302;2023-04-03T12:29:42;2.03;;;0.90;;
29732;SDS011;16643;43.158;25.302;2023-04-03T12:48:39;1.10;;;0.80;;
29732;SDS011;16643;43.158;25.302;2023-04-03T12:51:14;3.55;;;1.98;;
29732;SDS011;16643;43.158;25.302;2023-04-03T12:53:48;1.13;;;0.88;;
29732;SDS011;16643;43.158;25.302;2023-04-03T12:56:27;2.38;;;1.50;;
29732;SDS011;16643;43.158;25.302;2023-04-03T12:58:55;1.70;;;1.33;;
29732;SDS011;16643;43.158;25.302;2023-04-03T13:01:39;4.95;;;2.35;;
29732;SDS011;16643;43.158;25.302;2023-04-03T13:04:05;8.32;;;3.92;;
29732;SDS011;16643;43.158;25.302;2023-04-03T13:06:39;5.78;;;2.40;;
29732;SDS011;16643;43.158;25.302;2023-04-03T13:09:06;5.00;;;2.10;;
29732;SDS011;16643;43.158;25.302;2023-04-03T13:12:10;2.15;;;1.40;;
29732;SDS011;16643;43.158;25.302;2023-04-03T13:14:38;3.30;;;1.73;;
29732;SDS011;16643;43.158;25.302;2023-04-03T13:17:12;4.70;;;1.67;;
29732;SDS011;16643;43.158;25.302;2023-04-03T13:19:41;4.95;;;2.80;;
29732;SDS011;16643;43.158;25.302;2023-04-03T13:22:15;3.47;;;1.65;;
29732;SDS011;16643;43.158;25.302;2023-04-03T13:24:54;2.47;;;1.40;;
29732;SDS011;16643;43.158;25.302;2023-04-03T13:27:22;3.90;;;1.85;;
29732;SDS011;16643;43.158;25.302;2023-04-03T13:29:53;3.25;;;2.00;;
29732;SDS011;16643;43.158;25.302;2023-04-03T13:32:23;2.47;;;1.48;;
29732;SDS011;16643;43.158;25.302;2023-04-03T13:34:51;5.95;;;2.55;;
29732;SDS011;16643;43.158;25.302;2023-04-03T13:37:21;7.95;;;3.65;;
29732;SDS011;16643;43.158;25.302;2023-04-03T13:42:31;1.77;;;0.90;;
29732;SDS011;16643;43.158;25.302;2023-04-03T13:47:43;5.95;;;3.25;;
29732;SDS011;16643;43.158;25.302;2023-04-03T13:52:43;2.90;;;1.30;;
29732;SDS011;16643;43.158;25.302;2023-04-03T13:55:17;8.05;;;4.28;;
29732;SDS011;16643;43.158;25.302;2023-04-03T13:57:52;1.85;;;0.98;;
29732;SDS011;16643;43.158;25.302;2023-04-03T14:00:27;2.70;;;1.00;;
29732;SDS011;16643;43.158;25.302;2023-04-03T14:02:56;7.70;;;3.85;;
29732;SDS011;16643;43.158;25.302;2023-04-03T14:05:22;3.08;;;1.02;;
29732;SDS011;16643;43.158;25.302;2023-04-03T14:07:50;2.40;;;1.63;;
29732;SDS011;16643;43.158;25.302;2023-04-03T14:10:17;3.30;;;1.52;;
29732;SDS011;16643;43.158;25.302;2023-04-03T14:12:43;2.80;;;1.15;;
29732;SDS011;16643;43.158;25.302;2023-04-03T14:15:20;2.30;;;1.00;;
29732;SDS011;16643;43.158;25.302;2023-04-03T14:17:49;4.53;;;1.70;;
29732;SDS011;16643;43.158;25.302;2023-04-03T14:20:21;2.72;;;1.70;;
29732;SDS011;16643;43.158;25.302;2023-04-03T14:22:49;3.30;;;1.20;;
29732;SDS011;16643;43.158;25.302;2023-04-03T14:25:17;3.47;;;1.65;;
29732;SDS011;16643;43.158;25.302;2023-04-03T14:27:44;1.90;;;1.30;;
29732;SDS011;16643;43.158;25.302;2023-04-03T14:30:20;6.97;;;3.90;;
29732;SDS011;16643;43.158;25.302;2023-04-03T14:32:53;7.30;;;3.30;;
29732;SDS011;16643;43.158;25.302;2023-04-03T14:35:20;12.38;;;6.20;;
29732;SDS011;16643;43.158;25.302;2023-04-03T14:37:46;7.13;;;2.80;;
29732;SDS011;16643;43.158;25.302;2023-04-03T14:40:14;4.57;;;2.08;;
29732;SDS011;16643;43.158;25.302;2023-04-03T14:42:42;6.15;;;2.85;;
29732;SDS011;16643;43.158;25.302;2023-04-03T14:45:10;6.93;;;2.97;;
29732;SDS011;16643;43.158;25.302;2023-04-03T14:47:41;2.28;;;1.58;;
29732;SDS011;16643;43.158;25.302;2023-04-03T14:50:14;6.35;;;3.15;;
29732;SDS011;16643;43.158;25.302;2023-04-03T14:52:42;3.97;;;2.00;;
29732;SDS011;16643;43.158;25.302;2023-04-03T14:55:09;5.65;;;2.80;;
29732;SDS011;16643;43.158;25.302;2023-04-03T14:57:38;6.18;;;3.92;;
29732;SDS011;16643;43.158;25.302;2023-04-03T15:00:06;8.15;;;4.38;;
29732;SDS011;16643;43.158;25.302;2023-04-03T15:02:37;5.55;;;2.47;;
29732;SDS011;16643;43.158;25.302;2023-04-03T15:05:05;5.15;;;2.97;;
29732;SDS011;16643;43.158;25.302;2023-04-03T15:07:33;3.95;;;1.85;;
29732;SDS011;16643;43.158;25.302;2023-04-03T15:10:05;1.85;;;1.30;;
29732;SDS011;16643;43.158;25.302;2023-04-03T15:12:40;2.42;;;1.55;;
29732;SDS011;16643;43.158;25.302;2023-04-03T15:15:06;4.68;;;2.25;;
29732;SDS011;16643;43.158;25.302;2023-04-03T15:17:32;2.90;;;1.98;;
29732;SDS011;16643;43.158;25.302;2023-04-03T15:19:59;3.45;;;2.58;;
29732;SDS011;16643;43.158;25.302;2023-04-03T15:22:25;3.22;;;2.10;;
29732;SDS011;16643;43.158;25.302;2023-04-03T15:24:50;4.70;;;2.40;;
29732;SDS011;16643;43.158;25.302;2023-04-03T15:27:17;4.22;;;2.13;;
29732;SDS011;16643;43.158;25.302;2023-04-03T15:29:43;4.70;;;2.22;;
29732;SDS011;16643;43.158;25.302;2023-04-03T15:32:10;5.45;;;2.40;;
29732;SDS011;16643;43.158;25.302;2023-04-03T15:34:36;2.90;;;2.03;;
29732;SDS011;16643;43.158;25.302;2023-04-03T15:37:02;4.10;;;2.67;;
29732;SDS011;16643;43.158;25.302;2023-04-03T15:39:28;5.88;;;3.08;;
29732;SDS011;16643;43.158;25.302;2023-04-03T15:41:54;7.85;;;4.18;;
29732;SDS011;16643;43.158;25.302;2023-04-03T15:44:20;2.72;;;1.80;;
29732;SDS011;16643;43.158;25.302;2023-04-03T15:46:46;2.78;;;1.85;;
29732;SDS011;16643;43.158;25.302;2023-04-03T15:49:17;2.95;;;1.60;;
29732;SDS011;16643;43.158;25.302;2023-04-03T15:51:44;3.03;;;1.83;;
29732;SDS011;16643;43.158;25.302;2023-04-03T15:54:10;4.47;;;2.10;;
29732;SDS011;16643;43.158;25.302;2023-04-03T15:56:36;3.53;;;2.22;;
29732;SDS011;16643;43.158;25.302;2023-04-03T15:59:02;2.90;;;1.92;;
29732;SDS011;16643;43.158;25.302;2023-04-03T16:01:28;2.80;;;2.00;;
29732;SDS011;16643;43.158;25.302;2023-04-03T16:03:54;3.95;;;2.50;;
29732;SDS011;16643;43.158;25.302;2023-04-03T16:06:20;3.53;;;2.25;;
29732;SDS011;16643;43.158;25.302;2023-04-03T16:08:46;3.75;;;2.20;;
29732;SDS011;16643;43.158;25.302;2023-04-03T16:13:39;4.00;;;2.78;;
29732;SDS011;16643;43.158;25.302;2023-04-03T16:16:05;5.20;;;3.63;;
29732;SDS011;16643;43.158;25.302;2023-04-03T16:18:32;5.85;;;3.70;;
29732;SDS011;16643;43.158;25.302;2023-04-03T16:21:00;5.65;;;3.95;;
29732;SDS011;16643;43.158;25.302;2023-04-03T16:23:26;4.25;;;3.28;;
29732;SDS011;16643;43.158;25.302;2023-04-03T16:25:51;6.30;;;3.97;;
29732;SDS011;16643;43.158;25.302;2023-04-03T16:28:17;5.32;;;4.65;;
29732;SDS011;16643;43.158;25.302;2023-04-03T16:30:46;6.25;;;4.40;;
29732;SDS011;16643;43.158;25.302;2023-04-03T16:33:14;5.95;;;4.28;;
29732;SDS011;16643;43.158;25.302;2023-04-03T16:35:40;6.75;;;4.22;;
29732;SDS011;16643;43.158;25.302;2023-04-03T16:38:07;5.32;;;3.63;;
29732;SDS011;16643;43.158;25.302;2023-04-03T16:40:33;6.57;;;4.07;;
29732;SDS011;16643;43.158;25.302;2023-04-03T16:43:00;7.63;;;4.70;;
29732;SDS011;16643;43.158;25.302;2023-04-03T16:45:26;5.13;;;4.10;;
29732;SDS011;16643;43.158;25.302;2023-04-03T16:47:52;5.75;;;3.80;;
29732;SDS011;16643;43.158;25.302;2023-04-03T16:50:18;6.10;;;4.07;;
29732;SDS011;16643;43.158;25.302;2023-04-03T16:52:45;5.28;;;3.78;;
29732;SDS011;16643;43.158;25.302;2023-04-03T16:55:11;4.65;;;3.47;;
29732;SDS011;16643;43.158;25.302;2023-04-03T16:57:37;5.60;;;3.33;;